sensor_id;sensor_type;location;lat;lon;timestamp;pressure;altitude;pressure_sealevel;temperature;humidity
48774;BME280;34576;0.000;0.000;2023-10-19T00:02:54;95069.50;;;18.14;60.60
48774;BME280;34576;0.000;0.000;2023-10-19T00:09:55;95066.69;;;18.10;60.72
48774;BME280;34576;0.000;0.000;2023-10-19T00:16:55;95075.44;;;18.11;60.64
48774;BME280;34576;0.000;0.000;2023-10-19T00:24:05;95061.38;;;18.10;60.54
48774;BME280;34576;0.000;0.000;2023-10-19T00:31:06;95079.38;;;18.14;60.04
48774;BME280;34576;0.000;0.000;2023-10-19T00:38:11;95074.19;;;18.08;60.08
48774;BME280;34576;0.000;0.000;2023-10-19T00:45:37;95071.25;;;18.10;60.43
48774;BME280;34576;0.000;0.000;2023-10-19T00:52:42;95072.78;;;18.11;60.26
48774;BME280;34576;0.000;0.000;2023-10-19T00:59:49;95060.75;;;18.14;60.05
48774;BME280;34576;0.000;0.000;2023-10-19T01:06:54;95059.97;;;18.13;60.22
48774;BME280;34576;0.000;0.000;2023-10-19T01:14:20;95045.72;;;18.09;60.22
48774;BME280;34576;0.000;0.000;2023-10-19T01:21:22;95040.41;;;18.09;60.36
48774;BME280;34576;0.000;0.000;2023-10-19T01:35:41;95026.91;;;18.14;60.15
48774;BME280;34576;0.000;0.000;2023-10-19T01:43:00;95018.47;;;18.12;60.06
48774;BME280;34576;0.000;0.000;2023-10-19T01:50:01;95013.94;;;18.13;60.26
48774;BME280;34576;0.000;0.000;2023-10-19T01:57:01;95009.25;;;18.09;60.16
48774;BME280;34576;0.000;0.000;2023-10-19T02:04:04;95005.63;;;18.14;60.16
48774;BME280;34576;0.000;0.000;2023-10-19T02:11:06;95010.03;;;18.10;60.05
48774;BME280;34576;0.000;0.000;2023-10-19T02:18:16;95006.25;;;18.11;60.15
48774;BME280;34576;0.000;0.000;2023-10-19T02:25:17;95005.19;;;18.12;60.35
48774;BME280;34576;0.000;0.000;2023-10-19T02:32:18;95008.47;;;18.09;60.33
48774;BME280;34576;0.000;0.000;2023-10-19T02:39:19;95006.25;;;18.11;60.20
48774;BME280;34576;0.000;0.000;2023-10-19T02:46:19;94992.66;;;18.13;60.07
48774;BME280;34576;0.000;0.000;2023-10-19T02:53:20;94996.75;;;18.10;60.12
48774;BME280;34576;0.000;0.000;2023-10-19T03:00:20;94984.22;;;18.10;60.72
48774;BME280;34576;0.000;0.000;2023-10-19T03:07:21;94972.16;;;18.13;60.16
48774;BME280;34576;0.000;0.000;2023-10-19T03:14:21;94964.50;;;18.11;60.54
48774;BME280;34576;0.000;0.000;2023-10-19T03:21:25;94959.94;;;18.12;60.61
48774;BME280;34576;0.000;0.000;2023-10-19T03:28:32;94954.16;;;18.10;61.72
48774;BME280;34576;0.000;0.000;2023-10-19T03:35:36;94942.59;;;18.06;61.79
48774;BME280;34576;0.000;0.000;2023-10-19T03:42:37;94933.81;;;18.05;61.97
48774;BME280;34576;0.000;0.000;2023-10-19T03:49:41;94930.97;;;18.19;60.82
48774;BME280;34576;0.000;0.000;2023-10-19T03:56:41;94922.97;;;18.19;60.81
48774;BME280;34576;0.000;0.000;2023-10-19T04:03:42;94913.56;;;18.22;61.06
48774;BME280;34576;0.000;0.000;2023-10-19T04:10:43;94915.16;;;18.23;61.25
48774;BME280;34576;0.000;0.000;2023-10-19T04:18:02;94906.38;;;18.22;61.38
48774;BME280;34576;0.000;0.000;2023-10-19T04:25:09;94898.53;;;18.26;61.43
48774;BME280;34576;0.000;0.000;2023-10-19T04:32:12;94899.66;;;18.16;62.22
48774;BME280;34576;0.000;0.000;2023-10-19T04:39:14;94890.50;;;17.87;63.99
48774;BME280;34576;0.000;0.000;2023-10-19T04:46:15;94888.66;;;17.79;64.07
48774;BME280;34576;0.000;0.000;2023-10-19T04:53:18;94890.53;;;17.70;64.54
48774;BME280;34576;0.000;0.000;2023-10-19T05:00:19;94877.63;;;18.07;62.22
48774;BME280;34576;0.000;0.000;2023-10-19T05:07:20;94862.56;;;18.11;60.95
48774;BME280;34576;0.000;0.000;2023-10-19T05:14:21;94858.53;;;18.05;60.49
48774;BME280;34576;0.000;0.000;2023-10-19T05:21:21;94837.09;;;18.01;60.61
48774;BME280;34576;0.000;0.000;2023-10-19T05:28:21;94836.00;;;18.02;60.16
48774;BME280;34576;0.000;0.000;2023-10-19T05:35:22;94833.22;;;17.99;59.98
48774;BME280;34576;0.000;0.000;2023-10-19T05:42:23;94829.44;;;18.00;59.94
48774;BME280;34576;0.000;0.000;2023-10-19T05:49:23;94821.94;;;18.02;59.92
48774;BME280;34576;0.000;0.000;2023-10-19T05:56:24;94828.53;;;17.96;59.70
48774;BME280;34576;0.000;0.000;2023-10-19T06:03:24;94829.59;;;18.03;59.39
48774;BME280;34576;0.000;0.000;2023-10-19T06:10:26;94836.34;;;18.01;59.60
48774;BME280;34576;0.000;0.000;2023-10-19T06:17:27;94829.72;;;18.07;59.44
48774;BME280;34576;0.000;0.000;2023-10-19T06:24:28;94843.50;;;18.09;59.10
48774;BME280;34576;0.000;0.000;2023-10-19T06:31:28;94829.56;;;18.12;59.05
48774;BME280;34576;0.000;0.000;2023-10-19T06:38:29;94829.41;;;18.08;58.95
48774;BME280;34576;0.000;0.000;2023-10-19T06:45:29;94811.69;;;18.13;58.90
48774;BME280;34576;0.000;0.000;2023-10-19T06:52:29;94804.03;;;18.11;58.76
48774;BME280;34576;0.000;0.000;2023-10-19T06:59:30;94820.66;;;18.08;58.45
48774;BME280;34576;0.000;0.000;2023-10-19T07:06:33;94815.34;;;18.08;58.51
48774;BME280;34576;0.000;0.000;2023-10-19T07:13:33;94829.28;;;18.05;58.52
48774;BME280;34576;0.000;0.000;2023-10-19T07:20:33;94819.72;;;18.04;58.59
48774;BME280;34576;0.000;0.000;2023-10-19T07:27:38;94821.47;;;18.00;58.46
48774;BME280;34576;0.000;0.000;2023-10-19T07:34:38;94826.66;;;17.96;58.80
48774;BME280;34576;0.000;0.000;2023-10-19T07:41:40;94826.34;;;17.98;58.74
48774;BME280;34576;0.000;0.000;2023-10-19T07:48:40;94816.78;;;17.97;58.65
48774;BME280;34576;0.000;0.000;2023-10-19T07:55:41;94811.78;;;17.95;58.55
48774;BME280;34576;0.000;0.000;2023-10-19T08:02:43;94811.16;;;17.98;58.56
48774;BME280;34576;0.000;0.000;2023-10-19T08:09:45;94812.28;;;17.97;58.51
48774;BME280;34576;0.000;0.000;2023-10-19T08:16:45;94817.88;;;17.96;58.63
48774;BME280;34576;0.000;0.000;2023-10-19T08:23:46;94807.25;;;17.96;58.45
48774;BME280;34576;0.000;0.000;2023-10-19T08:30:47;94811.78;;;17.95;58.62
48774;BME280;34576;0.000;0.000;2023-10-19T08:37:57;94813.69;;;17.94;58.46
48774;BME280;34576;0.000;0.000;2023-10-19T08:44:57;94800.38;;;17.94;58.36
48774;BME280;34576;0.000;0.000;2023-10-19T08:51:59;94807.88;;;17.92;58.57
48774;BME280;34576;0.000;0.000;2023-10-19T08:59:01;94806.34;;;17.91;58.35
48774;BME280;34576;0.000;0.000;2023-10-19T09:06:01;94803.38;;;17.93;59.20
48774;BME280;34576;0.000;0.000;2023-10-19T09:13:03;94809.72;;;18.01;58.48
48774;BME280;34576;0.000;0.000;2023-10-19T09:20:06;94803.97;;;17.99;59.65
48774;BME280;34576;0.000;0.000;2023-10-19T09:27:10;94803.31;;;18.02;58.94
48774;BME280;34576;0.000;0.000;2023-10-19T09:34:11;94790.34;;;18.00;58.71
48774;BME280;34576;0.000;0.000;2023-10-19T09:41:20;94786.25;;;18.03;58.60
48774;BME280;34576;0.000;0.000;2023-10-19T09:48:20;94773.91;;;17.98;58.45
48774;BME280;34576;0.000;0.000;2023-10-19T09:55:33;94758.53;;;18.04;58.27
48774;BME280;34576;0.000;0.000;2023-10-19T10:02:33;94749.38;;;17.92;58.95
48774;BME280;34576;0.000;0.000;2023-10-19T10:09:38;94737.19;;;17.91;59.29
48774;BME280;34576;0.000;0.000;2023-10-19T10:16:40;94739.84;;;17.91;59.24
48774;BME280;34576;0.000;0.000;2023-10-19T10:23:41;94746.25;;;17.90;59.06
48774;BME280;34576;0.000;0.000;2023-10-19T10:31:06;94722.78;;;17.92;59.33
48774;BME280;34576;0.000;0.000;2023-10-19T10:38:08;94700.72;;;17.92;59.26
48774;BME280;34576;0.000;0.000;2023-10-19T10:45:14;94709.47;;;17.92;59.19
48774;BME280;34576;0.000;0.000;2023-10-19T10:52:25;94687.09;;;17.93;59.15
48774;BME280;34576;0.000;0.000;2023-10-19T10:59:25;94686.00;;;17.94;59.34
48774;BME280;34576;0.000;0.000;2023-10-19T11:06:26;94673.34;;;17.91;59.42
48774;BME280;34576;0.000;0.000;2023-10-19T11:13:26;94675.22;;;17.91;59.18
48774;BME280;34576;0.000;0.000;2023-10-19T11:20:28;94684.00;;;17.91;59.56
48774;BME280;34576;0.000;0.000;2023-10-19T11:27:29;94686.16;;;17.89;59.50
48774;BME280;34576;0.000;0.000;2023-10-19T11:34:29;94682.41;;;17.90;59.49
48774;BME280;34576;0.000;0.000;2023-10-19T11:41:30;94688.50;;;17.91;59.37
48774;BME280;34576;0.000;0.000;2023-10-19T11:48:32;94695.72;;;17.90;59.40
48774;BME280;34576;0.000;0.000;2023-10-19T11:55:32;94715.91;;;17.91;59.52
48774;BME280;34576;0.000;0.000;2023-10-19T12:02:32;94712.94;;;17.93;59.49
48774;BME280;34576;0.000;0.000;2023-10-19T12:09:33;94713.69;;;17.93;59.52
48774;BME280;34576;0.000;0.000;2023-10-19T12:16:33;94710.59;;;17.91;59.60
48774;BME280;34576;0.000;0.000;2023-10-19T12:23:33;94691.31;;;17.94;59.53
48774;BME280;34576;0.000;0.000;2023-10-19T12:30:33;94684.88;;;17.96;59.43
48774;BME280;34576;0.000;0.000;2023-10-19T12:37:38;94670.47;;;17.97;59.45
48774;BME280;34576;0.000;0.000;2023-10-19T12:44:52;94646.69;;;18.00;59.33
48774;BME280;34576;0.000;0.000;2023-10-19T12:51:52;94638.56;;;17.97;59.38
48774;BME280;34576;0.000;0.000;2023-10-19T12:58:52;94624.94;;;17.98;59.22
48774;BME280;34576;0.000;0.000;2023-10-19T13:05:54;94624.28;;;18.01;59.21
48774;BME280;34576;0.000;0.000;2023-10-19T13:12:54;94621.31;;;18.03;59.33
48774;BME280;34576;0.000;0.000;2023-10-19T13:19:55;94603.00;;;18.01;59.70
48774;BME280;34576;0.000;0.000;2023-10-19T13:26:58;94598.59;;;18.05;59.30
48774;BME280;34576;0.000;0.000;2023-10-19T13:33:59;94586.75;;;18.03;59.10
48774;BME280;34576;0.000;0.000;2023-10-19T13:41:06;94585.34;;;17.97;59.50
48774;BME280;34576;0.000;0.000;2023-10-19T13:48:10;94568.50;;;17.92;59.62
48774;BME280;34576;0.000;0.000;2023-10-19T13:55:11;94550.66;;;17.93;59.41
48774;BME280;34576;0.000;0.000;2023-10-19T14:02:12;94529.22;;;17.89;59.48
48774;BME280;34576;0.000;0.000;2023-10-19T14:09:12;94501.56;;;17.90;59.48
48774;BME280;34576;0.000;0.000;2023-10-19T14:16:13;94490.41;;;17.88;59.20
48774;BME280;34576;0.000;0.000;2023-10-19T14:23:13;94494.66;;;17.89;59.40
48774;BME280;34576;0.000;0.000;2023-10-19T14:30:15;94483.25;;;17.89;59.43
48774;BME280;34576;0.000;0.000;2023-10-19T14:37:15;94463.81;;;17.88;59.36
48774;BME280;34576;0.000;0.000;2023-10-19T14:44:15;94440.69;;;17.89;59.52
48774;BME280;34576;0.000;0.000;2023-10-19T14:51:16;94432.72;;;17.89;59.45
48774;BME280;34576;0.000;0.000;2023-10-19T14:58:17;94431.16;;;17.88;59.39
48774;BME280;34576;0.000;0.000;2023-10-19T15:05:17;94425.06;;;17.87;59.68
48774;BME280;34576;0.000;0.000;2023-10-19T15:12:18;94423.94;;;17.88;59.71
48774;BME280;34576;0.000;0.000;2023-10-19T15:19:19;94406.44;;;17.87;59.98
48774;BME280;34576;0.000;0.000;2023-10-19T15:26:19;94416.75;;;17.89;60.18
48774;BME280;34576;0.000;0.000;2023-10-19T15:33:20;94404.56;;;17.88;60.16
48774;BME280;34576;0.000;0.000;2023-10-19T15:40:21;94400.00;;;17.88;60.26
48774;BME280;34576;0.000;0.000;2023-10-19T15:47:21;94380.78;;;17.91;60.82
48774;BME280;34576;0.000;0.000;2023-10-19T15:54:23;94380.53;;;17.97;60.12
48774;BME280;34576;0.000;0.000;2023-10-19T16:01:24;94362.72;;;17.97;60.26
48774;BME280;34576;0.000;0.000;2023-10-19T16:08:26;94377.88;;;17.97;59.74
48774;BME280;34576;0.000;0.000;2023-10-19T16:15:26;94378.97;;;17.96;59.54
48774;BME280;34576;0.000;0.000;2023-10-19T16:22:27;94381.66;;;17.96;59.74
48774;BME280;34576;0.000;0.000;2023-10-19T16:29:28;94388.53;;;17.97;59.48
48774;BME280;34576;0.000;0.000;2023-10-19T16:36:28;94374.66;;;17.91;60.21
48774;BME280;34576;0.000;0.000;2023-10-19T16:43:28;94386.84;;;17.92;60.41
48774;BME280;34576;0.000;0.000;2023-10-19T16:50:29;94388.84;;;17.95;60.21
48774;BME280;34576;0.000;0.000;2023-10-19T16:57:29;94386.97;;;17.96;60.25
48774;BME280;34576;0.000;0.000;2023-10-19T17:04:30;94352.38;;;17.96;60.15
48774;BME280;34576;0.000;0.000;2023-10-19T17:11:31;94361.03;;;17.92;60.33
48774;BME280;34576;0.000;0.000;2023-10-19T17:18:32;94353.38;;;17.91;61.00
48774;BME280;34576;0.000;0.000;2023-10-19T17:25:33;94337.88;;;17.93;61.35
48774;BME280;34576;0.000;0.000;2023-10-19T17:32:35;94320.03;;;17.93;61.57
48774;BME280;34576;0.000;0.000;2023-10-19T17:39:35;94339.22;;;17.99;61.32
48774;BME280;34576;0.000;0.000;2023-10-19T17:46:36;94360.16;;;18.01;60.89
48774;BME280;34576;0.000;0.000;2023-10-19T17:53:36;94352.50;;;17.99;60.38
48774;BME280;34576;0.000;0.000;2023-10-19T18:00:38;94342.06;;;17.94;60.77
48774;BME280;34576;0.000;0.000;2023-10-19T18:07:39;94325.19;;;17.90;60.42
48774;BME280;34576;0.000;0.000;2023-10-19T18:14:39;94341.31;;;17.93;60.25
48774;BME280;34576;0.000;0.000;2023-10-19T18:21:39;94337.09;;;17.92;60.18
48774;BME280;34576;0.000;0.000;2023-10-19T18:28:40;94337.09;;;17.92;59.99
48774;BME280;34576;0.000;0.000;2023-10-19T18:35:43;94329.75;;;17.89;59.92
48774;BME280;34576;0.000;0.000;2023-10-19T18:42:44;94322.53;;;17.90;59.78
48774;BME280;34576;0.000;0.000;2023-10-19T18:49:45;94295.19;;;17.89;59.63
48774;BME280;34576;0.000;0.000;2023-10-19T18:56:45;94236.91;;;17.84;59.70
48774;BME280;34576;0.000;0.000;2023-10-19T19:03:46;94239.31;;;17.89;59.36
48774;BME280;34576;0.000;0.000;2023-10-19T19:10:47;94219.50;;;17.87;59.53
48774;BME280;34576;0.000;0.000;2023-10-19T19:17:49;94198.22;;;17.87;59.39
48774;BME280;34576;0.000;0.000;2023-10-19T19:24:50;94189.13;;;17.88;59.33
48774;BME280;34576;0.000;0.000;2023-10-19T19:31:50;94199.44;;;17.89;59.32
48774;BME280;34576;0.000;0.000;2023-10-19T19:38:51;94193.22;;;17.85;59.22
48774;BME280;34576;0.000;0.000;2023-10-19T19:45:51;94164.78;;;17.86;59.08
48774;BME280;34576;0.000;0.000;2023-10-19T19:52:52;94163.78;;;17.90;58.81
48774;BME280;34576;0.000;0.000;2023-10-19T19:59:53;94177.28;;;17.98;59.47
48774;BME280;34576;0.000;0.000;2023-10-19T20:06:53;94187.16;;;17.97;60.45
48774;BME280;34576;0.000;0.000;2023-10-19T20:13:53;94194.03;;;17.98;61.10
48774;BME280;34576;0.000;0.000;2023-10-19T20:20:53;94153.13;;;18.03;61.49
48774;BME280;34576;0.000;0.000;2023-10-19T20:27:55;94121.88;;;18.00;62.15
48774;BME280;34576;0.000;0.000;2023-10-19T20:34:55;94120.34;;;17.99;62.92
48774;BME280;34576;0.000;0.000;2023-10-19T20:41:56;94115.91;;;18.03;62.87
48774;BME280;34576;0.000;0.000;2023-10-19T20:48:56;94102.72;;;17.94;63.38
48774;BME280;34576;0.000;0.000;2023-10-19T20:56:00;94108.56;;;18.00;63.69
48774;BME280;34576;0.000;0.000;2023-10-19T21:03:00;94106.25;;;17.98;63.49
48774;BME280;34576;0.000;0.000;2023-10-19T21:10:00;94081.53;;;17.98;63.54
48774;BME280;34576;0.000;0.000;2023-10-19T21:17:01;94061.03;;;17.98;63.55
48774;BME280;34576;0.000;0.000;2023-10-19T21:24:01;94053.91;;;18.02;63.83
48774;BME280;34576;0.000;0.000;2023-10-19T21:31:02;94035.31;;;18.02;63.68
48774;BME280;34576;0.000;0.000;2023-10-19T21:38:03;94025.47;;;18.03;63.85
48774;BME280;34576;0.000;0.000;2023-10-19T21:45:03;94022.88;;;18.06;63.70
48774;BME280;34576;0.000;0.000;2023-10-19T21:52:04;94012.66;;;18.08;63.58
48774;BME280;34576;0.000;0.000;2023-10-19T21:59:04;94001.69;;;18.10;63.52
48774;BME280;34576;0.000;0.000;2023-10-19T22:06:04;93989.06;;;18.07;63.91
48774;BME280;34576;0.000;0.000;2023-10-19T22:13:04;93977.75;;;18.10;63.71
48774;BME280;34576;0.000;0.000;2023-10-19T22:20:05;93969.44;;;18.11;63.33
48774;BME280;34576;0.000;0.000;2023-10-19T22:27:07;93990.72;;;18.11;63.70
48774;BME280;34576;0.000;0.000;2023-10-19T22:34:07;93975.19;;;18.14;64.00
48774;BME280;34576;0.000;0.000;2023-10-19T22:41:09;93986.34;;;18.19;63.85
48774;BME280;34576;0.000;0.000;2023-10-19T22:48:09;93968.81;;;18.18;63.71
48774;BME280;34576;0.000;0.000;2023-10-19T22:55:10;93970.38;;;18.19;63.31
48774;BME280;34576;0.000;0.000;2023-10-19T23:02:13;93992.09;;;18.21;64.20
48774;BME280;34576;0.000;0.000;2023-10-19T23:09:13;93943.78;;;18.19;63.70
48774;BME280;34576;0.000;0.000;2023-10-19T23:16:20;93908.41;;;18.19;63.97
48774;BME280;34576;0.000;0.000;2023-10-19T23:23:22;93887.91;;;18.19;63.90
48774;BME280;34576;0.000;0.000;2023-10-19T23:30:22;93863.25;;;18.22;63.60
48774;BME280;34576;0.000;0.000;2023-10-19T23:37:23;93841.38;;;18.29;63.88
48774;BME280;34576;0.000;0.000;2023-10-19T23:44:23;93817.97;;;18.19;63.13
48774;BME280;34576;0.000;0.000;2023-10-19T23:51:27;93823.28;;;18.19;63.21
48774;BME280;34576;0.000;0.000;2023-10-19T23:58:30;93809.88;;;18.15;63.10
